Weather at Alexandra Park Aerodrome [CLOSED]

Public forecast

Using degrees Celsius for public forecast. Weather courtesy of forecast.io.

Closest aviation weather report (METAR) to Alexandra Park Aerodrome

Closest report is Manchester Airport, 5.0 nm (9.3 km) S. Retrieved 2020/11/24 06:20 UTC (3 minutes ago):

EGCC 240620Z AUTO 18007KT 110V220 9999 SCT024 OVC030 10/08 Q1014 NOSIG

Closest aviation forecast (TAF) to Alexandra Park Aerodrome

Closest forecast is Manchester Airport, 5.0 nm (9.3 km) S. Retrieved 2020/11/24 06:00 UTC (23 minutes ago):

TAF EGCC 240459Z 2406/2512 19010KT 9999 SCT020 PROB40 TEMPO 2406/2424 BKN012 TEMPO 2410/2413 5000 RA PROB40 TEMPO 2410/2424 17016G26KT PROB30 TEMPO 2410/2413 3000 RADZ BKN008 BECMG 2500/2503 28005KT TEMPO 2500/2507 8000 -RA BKN007 PROB30 TEMPO 2500/2507 RA BKN004